Time;durP1;ratioP1;P1;durP2;ratioP2;P2;SDS_P1;SDS_P2;PMS_P1;PMS_P2;Temp;Humidity;BMP_temperature;BMP_pressure;BME280_temperature;BME280_humidity;BME280_pressure;Samples;Min_cycle;Max_cycle;Signal;HPM_P1;HPM_P2
2021/09/23 00:00:57;;;;;;;6.45;1.13;;;13.80;99.90;;;;;;4916675;29;20028;-86
2021/09/23 00:05:56;;;;;;;4.68;1.13;;;13.80;99.90;;;;;;4918763;29;20516;-86
2021/09/23 00:08:22;;;;;;;3.80;1.33;;;13.80;99.90;;;;;;4917067;29;20081;-86
2021/09/23 00:10:48;;;;;;;6.88;1.65;;;13.80;99.90;;;;;;4918152;29;20047;-86
2021/09/23 00:13:13;;;;;;;3.22;1.15;;;13.80;99.90;;;;;;4917889;29;20506;-86
2021/09/23 00:15:40;;;;;;;2.70;1.20;;;13.90;99.90;;;;;;4918118;29;20067;-85
2021/09/23 00:18:12;;;;;;;4.93;1.73;;;13.90;99.90;;;;;;4917101;29;20068;-86
2021/09/23 00:20:40;;;;;;;6.57;1.67;;;13.90;99.90;;;;;;4918251;29;20024;-86
2021/09/23 00:23:07;;;;;;;7.40;1.50;;;13.90;99.90;;;;;;4916418;29;20044;-86
2021/09/23 00:25:34;;;;;;;5.45;1.20;;;13.90;99.90;;;;;;4917897;29;20083;-86
2021/09/23 00:28:01;;;;;;;4.40;1.30;;;13.90;99.90;;;;;;4916525;29;20088;-86
2021/09/23 00:30:27;;;;;;;4.25;1.20;;;13.90;99.90;;;;;;4916628;29;20055;-86
2021/09/23 00:32:55;;;;;;;1.80;0.88;;;14.00;99.90;;;;;;4915898;29;20027;-85
2021/09/23 00:35:21;;;;;;;8.40;1.65;;;14.00;99.90;;;;;;4915605;29;20535;-85
2021/09/23 00:37:47;;;;;;;5.57;1.20;;;14.00;99.90;;;;;;4915514;29;20039;-85
2021/09/23 00:40:14;;;;;;;7.07;1.77;;;14.10;99.90;;;;;;4916845;29;20538;-85
2021/09/23 00:42:41;;;;;;;8.85;1.75;;;14.10;99.90;;;;;;4916228;29;20036;-85
2021/09/23 00:45:09;;;;;;;4.43;1.23;;;14.10;99.90;;;;;;4915485;29;20052;-85
2021/09/23 00:47:35;;;;;;;3.92;1.30;;;14.10;99.90;;;;;;4915319;29;20083;-86
2021/09/23 00:50:00;;;;;;;4.78;1.27;;;14.10;99.90;;;;;;4915546;29;20024;-85
2021/09/23 00:52:31;;;;;;;3.72;1.30;;;14.10;99.90;;;;;;4916744;29;20035;-85
2021/09/23 00:54:57;;;;;;;4.70;1.33;;;14.10;99.90;;;;;;4916743;29;20023;-85
2021/09/23 00:57:23;;;;;;;7.13;1.40;;;14.20;99.90;;;;;;4916454;29;20115;-85
2021/09/23 00:59:54;;;;;;;5.50;1.60;;;14.20;99.90;;;;;;4915484;29;20039;-85
2021/09/23 01:02:20;;;;;;;3.22;1.15;;;14.20;99.90;;;;;;4916656;29;20458;-85
2021/09/23 01:04:49;;;;;;;5.32;1.40;;;14.20;99.90;;;;;;4916601;29;20411;-85
2021/09/23 01:07:17;;;;;;;5.00;1.83;;;14.20;99.90;;;;;;4915578;29;20409;-85
2021/09/23 01:09:45;;;;;;;10.18;1.75;;;14.20;99.90;;;;;;4916978;29;20033;-85
2021/09/23 01:12:12;;;;;;;6.47;1.40;;;14.20;99.90;;;;;;4916472;29;20133;-85
2021/09/23 01:14:38;;;;;;;4.15;1.02;;;14.30;99.90;;;;;;4920702;29;20024;-86
2021/09/23 01:17:03;;;;;;;3.30;1.10;;;14.30;99.90;;;;;;4924699;29;20028;-85
2021/09/23 01:19:33;;;;;;;6.90;1.52;;;14.30;99.90;;;;;;4926326;29;20028;-85
2021/09/23 01:21:59;;;;;;;3.57;1.43;;;14.30;99.90;;;;;;4924684;29;20118;-85
2021/09/23 01:24:26;;;;;;;4.00;1.30;;;14.30;99.90;;;;;;4924269;29;20509;-85
2021/09/23 01:26:55;;;;;;;5.85;1.17;;;14.30;99.90;;;;;;4922160;29;20056;-85
2021/09/23 01:29:23;;;;;;;10.50;1.20;;;14.30;99.90;;;;;;4917735;29;20024;-85
2021/09/23 01:31:49;;;;;;;7.25;1.50;;;14.30;99.90;;;;;;4917045;29;20440;-85
2021/09/23 01:34:15;;;;;;;3.85;2.00;;;14.30;99.90;;;;;;4915932;29;20059;-85
2021/09/23 01:36:40;;;;;;;5.18;1.45;;;14.30;99.90;;;;;;4917242;29;20039;-85
2021/09/23 01:39:06;;;;;;;5.30;1.30;;;14.30;99.90;;;;;;4916451;29;20123;-86
2021/09/23 01:41:32;;;;;;;3.00;1.27;;;14.30;99.90;;;;;;4915718;29;20122;-85
2021/09/23 01:43:58;;;;;;;3.92;1.20;;;14.30;99.90;;;;;;4914848;29;20068;-85
2021/09/23 01:46:24;;;;;;;5.75;1.40;;;14.30;99.90;;;;;;4916543;29;20035;-86
2021/09/23 01:48:49;;;;;;;4.35;1.17;;;14.30;99.90;;;;;;4915089;29;20087;-86
2021/09/23 01:51:15;;;;;;;4.95;1.48;;;14.30;99.90;;;;;;4916300;29;20482;-85
2021/09/23 01:53:41;;;;;;;3.70;1.23;;;14.30;99.90;;;;;;4914094;29;20033;-85
2021/09/23 01:56:06;;;;;;;5.47;1.40;;;14.30;99.90;;;;;;4914186;29;20032;-85
2021/09/23 01:58:32;;;;;;;5.50;1.13;;;14.40;99.90;;;;;;4915788;29;20390;-86
2021/09/23 02:00:58;;;;;;;4.47;1.20;;;14.40;99.90;;;;;;4914375;29;20126;-85
2021/09/23 02:03:24;;;;;;;4.35;1.52;;;14.40;99.90;;;;;;4915709;29;20036;-85
2021/09/23 02:05:50;;;;;;;5.00;1.20;;;14.40;99.90;;;;;;4914440;29;20035;-84
2021/09/23 02:08:15;;;;;;;7.03;1.38;;;14.40;99.90;;;;;;4914170;29;20032;-84
2021/09/23 02:10:41;;;;;;;6.28;1.52;;;14.40;99.90;;;;;;4914122;29;20071;-85
2021/09/23 02:13:07;;;;;;;11.63;1.83;;;14.50;99.90;;;;;;4914395;29;20050;-84
2021/09/23 02:15:32;;;;;;;6.32;1.15;;;14.50;99.90;;;;;;4915313;29;20039;-86
2021/09/23 02:17:58;;;;;;;5.85;1.20;;;14.50;99.90;;;;;;4915649;29;20135;-86
2021/09/23 02:20:24;;;;;;;4.32;1.10;;;14.50;99.90;;;;;;4915475;29;20032;-86
2021/09/23 02:22:49;;;;;;;5.88;1.40;;;14.50;99.90;;;;;;4915374;29;20064;-86
2021/09/23 02:25:15;;;;;;;7.47;1.35;;;14.50;99.90;;;;;;4914037;29;20028;-86
2021/09/23 02:27:41;;;;;;;3.95;1.10;;;14.60;99.90;;;;;;4915366;29;20044;-86
2021/09/23 02:30:08;;;;;;;7.13;1.40;;;14.60;99.90;;;;;;4914164;29;20031;-86
2021/09/23 02:32:34;;;;;;;3.65;1.40;;;14.60;99.90;;;;;;4915491;29;20084;-85
2021/09/23 02:34:59;;;;;;;5.18;1.75;;;14.60;99.90;;;;;;4914147;29;20055;-86
2021/09/23 02:37:26;;;;;;;5.20;1.58;;;14.70;99.90;;;;;;4914192;29;20035;-86
2021/09/23 02:39:52;;;;;;;3.25;1.10;;;14.70;99.90;;;;;;4915037;29;20526;-86
2021/09/23 02:42:18;;;;;;;5.90;1.15;;;14.70;99.90;;;;;;4914083;29;20040;-86
2021/09/23 02:44:43;;;;;;;3.97;1.48;;;14.70;99.90;;;;;;4915271;29;20028;-86
2021/09/23 02:47:09;;;;;;;9.80;1.52;;;14.70;99.90;;;;;;4915273;29;20494;-86
2021/09/23 02:49:35;;;;;;;7.63;1.90;;;14.70;99.90;;;;;;4915317;29;20088;-86
2021/09/23 02:52:01;;;;;;;5.57;1.20;;;14.70;99.90;;;;;;4915334;29;20115;-86
2021/09/23 02:54:26;;;;;;;5.05;1.92;;;14.70;99.90;;;;;;4913829;29;20030;-86
2021/09/23 02:56:52;;;;;;;3.63;1.40;;;14.70;99.90;;;;;;4915261;29;20035;-88
2021/09/23 02:59:18;;;;;;;5.93;1.95;;;14.70;99.90;;;;;;4933512;23;20051;-86
2021/09/23 03:01:43;;;;;;;5.10;1.13;;;14.70;99.90;;;;;;4916804;29;20028;-85
2021/09/23 03:04:09;;;;;;;6.07;1.70;;;14.70;99.90;;;;;;4932637;29;20050;-86
2021/09/23 03:06:35;;;;;;;3.50;1.55;;;14.70;99.90;;;;;;4920465;29;20059;-85
2021/09/23 03:09:01;;;;;;;5.40;1.40;;;14.70;99.90;;;;;;4920500;29;20074;-85
2021/09/23 03:11:26;;;;;;;6.00;1.40;;;14.70;99.90;;;;;;4937555;29;20039;-85
2021/09/23 03:13:53;;;;;;;8.45;1.90;;;14.70;99.90;;;;;;4937214;29;20028;-84
2021/09/23 03:16:18;;;;;;;4.63;1.25;;;14.70;99.90;;;;;;4920220;29;20063;-85
2021/09/23 03:18:46;;;;;;;3.88;1.20;;;14.70;99.90;;;;;;4937657;29;20059;-85
2021/09/23 03:21:13;;;;;;;3.92;1.27;;;14.70;99.90;;;;;;4920280;29;20493;-85
2021/09/23 03:23:38;;;;;;;2.95;1.25;;;14.70;99.90;;;;;;4920211;29;20044;-84
2021/09/23 03:26:05;;;;;;;2.30;1.10;;;14.70;99.90;;;;;;4920150;29;20031;-85
2021/09/23 03:28:31;;;;;;;6.10;1.90;;;14.70;99.90;;;;;;4936906;29;20067;-85
2021/09/23 03:30:58;;;;;;;4.13;1.20;;;14.70;99.90;;;;;;4920223;29;20024;-85
2021/09/23 03:33:24;;;;;;;4.63;1.38;;;14.70;99.90;;;;;;4920143;29;20117;-84
2021/09/23 03:35:50;;;;;;;8.93;1.60;;;14.80;99.90;;;;;;4919852;29;20039;-84
2021/09/23 03:38:16;;;;;;;6.13;1.27;;;14.70;99.90;;;;;;4937266;29;20087;-87
2021/09/23 03:40:45;;;;;;;7.90;1.52;;;14.80;99.90;;;;;;4919861;29;20030;-86
2021/09/23 03:43:15;;;;;;;4.45;1.20;;;14.80;99.90;;;;;;4936860;29;20047;-86
2021/09/23 03:45:41;;;;;;;5.53;1.60;;;14.80;99.90;;;;;;4919801;29;20107;-86
2021/09/23 03:48:07;;;;;;;4.60;1.50;;;14.80;99.90;;;;;;4936824;29;20091;-86
2021/09/23 03:50:32;;;;;;;6.82;1.70;;;14.80;99.90;;;;;;4919611;29;20028;-86
2021/09/23 03:52:58;;;;;;;6.45;1.50;;;14.80;99.90;;;;;;4919569;29;20038;-86
2021/09/23 03:55:24;;;;;;;8.98;2.38;;;14.80;99.90;;;;;;4919322;29;20433;-86
2021/09/23 03:57:49;;;;;;;5.20;1.98;;;14.80;99.90;;;;;;4935928;29;20034;-86
2021/09/23 04:00:20;;;;;;;4.40;1.55;;;14.80;99.90;;;;;;4935587;29;20524;-87
2021/09/23 04:02:46;;;;;;;6.15;1.70;;;14.80;99.90;;;;;;4918338;29;20031;-86
2021/09/23 04:05:12;;;;;;;8.43;1.55;;;14.80;99.90;;;;;;4935587;29;20114;-86
2021/09/23 04:07:37;;;;;;;8.98;2.28;;;14.80;99.90;;;;;;4935377;29;20120;-86
2021/09/23 04:10:04;;;;;;;8.80;1.98;;;14.80;99.90;;;;;;4918411;29;20118;-86
2021/09/23 04:12:29;;;;;;;7.97;2.58;;;14.80;99.90;;;;;;4935230;29;20015;-86
2021/09/23 04:14:55;;;;;;;6.47;1.83;;;14.80;99.90;;;;;;4935374;29;20138;-86
2021/09/23 04:17:21;;;;;;;8.25;2.80;;;14.90;99.90;;;;;;4934640;29;20019;-86
2021/09/23 04:19:50;;;;;;;4.50;2.30;;;14.90;99.90;;;;;;4917971;29;20060;-86
2021/09/23 04:22:16;;;;;;;9.13;3.28;;;14.90;99.90;;;;;;4917950;29;20048;-86
2021/09/23 04:24:42;;;;;;;4.13;3.40;;;14.90;99.90;;;;;;4917955;29;20573;-86
2021/09/23 04:27:07;;;;;;;13.65;4.25;;;14.90;99.90;;;;;;4935471;29;20032;-86
2021/09/23 04:29:33;;;;;;;6.68;3.42;;;14.90;99.90;;;;;;4918859;29;20115;-86
2021/09/23 04:32:00;;;;;;;8.85;3.90;;;14.90;99.90;;;;;;4919094;29;20074;-86
2021/09/23 04:34:26;;;;;;;8.82;3.70;;;14.90;99.90;;;;;;4935959;29;20036;-86
2021/09/23 04:36:51;;;;;;;9.02;3.63;;;14.90;99.90;;;;;;4936049;29;20035;-85
2021/09/23 04:39:18;;;;;;;9.10;4.60;;;14.90;99.90;;;;;;4919020;29;20032;-85
2021/09/23 04:41:45;;;;;;;12.02;4.78;;;14.90;99.90;;;;;;4935929;29;20024;-86
2021/09/23 04:44:10;;;;;;;9.45;4.75;;;14.90;99.90;;;;;;4935732;29;20445;-86
2021/09/23 04:46:36;;;;;;;8.95;4.28;;;14.90;99.90;;;;;;4918759;29;20027;-86
2021/09/23 04:49:02;;;;;;;7.18;4.28;;;14.90;99.90;;;;;;4935700;29;20028;-86
2021/09/23 04:51:28;;;;;;;9.60;6.05;;;14.90;99.90;;;;;;4919501;29;20028;-87
2021/09/23 04:53:55;;;;;;;8.27;6.00;;;14.90;99.90;;;;;;4919071;29;20040;-85
2021/09/23 04:56:21;;;;;;;11.05;5.90;;;14.90;99.90;;;;;;4918790;29;20031;-86
2021/09/23 04:58:48;;;;;;;9.75;5.03;;;15.00;99.90;;;;;;4936038;29;20038;-86
2021/09/23 05:01:13;;;;;;;9.68;5.72;;;15.00;99.90;;;;;;4945491;29;20028;-85
2021/09/23 05:03:39;;;;;;;6.47;4.72;;;15.00;99.90;;;;;;4946791;29;20127;-86
2021/09/23 05:06:05;;;;;;;7.75;4.70;;;15.00;99.90;;;;;;4927652;29;20062;-85
2021/09/23 05:08:31;;;;;;;6.68;4.20;;;15.00;99.90;;;;;;4925722;29;20455;-86
2021/09/23 05:10:57;;;;;;;6.18;4.53;;;15.00;99.90;;;;;;4925504;29;20028;-86
2021/09/23 05:13:23;;;;;;;6.80;5.05;;;15.00;99.90;;;;;;4918899;29;20060;-85
2021/09/23 05:15:48;;;;;;;6.00;2.63;;;14.90;99.90;;;;;;4918790;29;20024;-86
2021/09/23 05:18:14;;;;;;;7.10;2.83;;;14.90;99.90;;;;;;4918401;29;20028;-86
2021/09/23 05:20:40;;;;;;;5.55;2.28;;;14.90;99.90;;;;;;4935764;29;20115;-85
2021/09/23 05:23:06;;;;;;;7.55;3.38;;;14.80;99.90;;;;;;4918407;29;20043;-86
2021/09/23 05:25:32;;;;;;;7.13;3.33;;;14.80;99.90;;;;;;4935480;29;20035;-86
2021/09/23 05:27:58;;;;;;;10.25;4.32;;;14.80;99.90;;;;;;4917708;29;20043;-86
2021/09/23 05:30:24;;;;;;;7.65;4.28;;;14.80;99.90;;;;;;4917549;29;20106;-86
2021/09/23 05:32:50;;;;;;;9.00;4.00;;;14.70;99.90;;;;;;4917746;29;20111;-86
2021/09/23 05:35:16;;;;;;;8.30;3.90;;;14.70;99.90;;;;;;4917949;29;20708;-86
2021/09/23 05:37:42;;;;;;;5.53;3.05;;;14.70;99.90;;;;;;4917876;29;20529;-86
2021/09/23 05:40:09;;;;;;;3.95;2.28;;;14.70;99.90;;;;;;4917982;29;20581;-86
2021/09/23 05:42:35;;;;;;;4.13;2.30;;;14.70;99.90;;;;;;4917734;29;20123;-86
2021/09/23 05:45:02;;;;;;;5.60;2.05;;;14.70;99.90;;;;;;4917703;29;20028;-86
2021/09/23 05:47:28;;;;;;;5.43;2.53;;;14.70;99.90;;;;;;4917684;29;20118;-86
2021/09/23 05:49:53;;;;;;;7.05;2.80;;;14.70;99.90;;;;;;4918060;29;20564;-86
2021/09/23 05:52:20;;;;;;;5.50;2.33;;;14.70;99.90;;;;;;4917657;29;20509;-86
2021/09/23 05:54:46;;;;;;;4.85;3.17;;;14.70;99.90;;;;;;4918215;29;20462;-86
2021/09/23 05:57:17;;;;;;;7.05;3.03;;;14.70;99.90;;;;;;4917922;29;20032;-86
2021/09/23 05:59:43;;;;;;;5.78;3.78;;;14.70;99.90;;;;;;4917989;29;20044;-86
2021/09/23 06:02:09;;;;;;;5.63;3.40;;;14.70;99.90;;;;;;4918209;29;20047;-87
2021/09/23 06:04:34;;;;;;;8.95;4.75;;;14.70;99.90;;;;;;4918972;29;20047;-86
2021/09/23 06:07:00;;;;;;;9.25;4.47;;;14.70;99.90;;;;;;4920344;29;20038;-86
2021/09/23 06:09:25;;;;;;;6.57;5.03;;;14.70;99.90;;;;;;4938673;29;20028;-86
2021/09/23 06:11:52;;;;;;;7.18;4.25;;;14.70;99.90;;;;;;4930022;29;20071;-87
2021/09/23 06:14:18;;;;;;;6.28;3.80;;;14.70;99.90;;;;;;4932689;29;20055;-86
2021/09/23 06:16:44;;;;;;;8.38;3.92;;;14.70;99.90;;;;;;4947805;29;20059;-88
2021/09/23 06:19:09;;;;;;;5.82;4.63;;;14.80;99.90;;;;;;4923038;29;20024;-85
2021/09/23 06:21:35;;;;;;;8.55;5.15;;;14.70;99.90;;;;;;4936714;29;20035;-86
2021/09/23 06:24:01;;;;;;;6.38;3.63;;;14.80;99.90;;;;;;4918039;29;20055;-86
2021/09/23 06:26:27;;;;;;;7.68;4.32;;;14.80;99.90;;;;;;4917745;29;20501;-86
2021/09/23 06:28:53;;;;;;;10.05;4.72;;;14.80;99.90;;;;;;4934280;29;20040;-86
2021/09/23 06:31:18;;;;;;;5.22;3.90;;;14.80;99.90;;;;;;4916924;29;20031;-86
2021/09/23 06:33:44;;;;;;;6.38;4.20;;;14.90;99.90;;;;;;4914469;29;20020;-86
2021/09/23 06:36:11;;;;;;;4.22;3.17;;;14.90;99.90;;;;;;4916638;29;20389;-86
2021/09/23 06:38:36;;;;;;;5.47;4.47;;;14.90;99.90;;;;;;4916768;29;20051;-87
2021/09/23 06:41:02;;;;;;;6.20;3.80;;;15.00;99.90;;;;;;4918885;29;20055;-87
2021/09/23 06:43:28;;;;;;;6.68;4.45;;;15.00;99.90;;;;;;4920149;29;20039;-86
2021/09/23 06:45:54;;;;;;;6.75;4.38;;;15.00;99.90;;;;;;4920046;29;20039;-86
2021/09/23 06:48:20;;;;;;;5.65;3.92;;;15.10;99.90;;;;;;4937382;29;20494;-85
2021/09/23 06:50:45;;;;;;;7.20;3.50;;;15.10;99.90;;;;;;4937163;29;20027;-86
2021/09/23 06:53:11;;;;;;;3.83;3.17;;;15.20;99.90;;;;;;4937160;29;20023;-87
2021/09/23 06:55:37;;;;;;;4.47;3.35;;;15.20;99.90;;;;;;4920056;29;20179;-87
2021/09/23 06:58:03;;;;;;;3.15;2.78;;;15.30;99.90;;;;;;4936966;29;20149;-87
2021/09/23 07:00:28;;;;;;;3.65;2.88;;;15.30;99.90;;;;;;4936494;29;20047;-86
2021/09/23 07:02:55;;;;;;;2.83;2.33;;;15.40;99.90;;;;;;4937163;29;20067;-87
2021/09/23 07:05:20;;;;;;;2.67;1.90;;;15.40;99.90;;;;;;4920224;29;20468;-86
2021/09/23 07:07:46;;;;;;;2.05;1.80;;;15.40;99.90;;;;;;4919291;29;20187;-87
2021/09/23 07:10:11;;;;;;;2.17;1.52;;;15.40;99.90;;;;;;4919796;29;20024;-85
2021/09/23 07:12:37;;;;;;;4.40;2.80;;;15.50;99.90;;;;;;4919534;29;20107;-85
2021/09/23 07:15:04;;;;;;;1.92;1.77;;;15.50;99.90;;;;;;4936324;29;20091;-86
2021/09/23 07:17:31;;;;;;;2.55;2.35;;;15.50;99.90;;;;;;4936378;29;20031;-85
2021/09/23 07:19:57;;;;;;;3.67;2.20;;;15.50;99.90;;;;;;4919944;29;20521;-85
2021/09/23 07:22:23;;;;;;;5.85;1.83;;;15.50;99.90;;;;;;4936849;29;20444;-86
2021/09/23 07:24:49;;;;;;;2.28;1.80;;;15.50;99.90;;;;;;4939458;29;20091;-85
2021/09/23 07:27:15;;;;;;;2.53;1.77;;;15.60;99.90;;;;;;4940426;29;20071;-86
2021/09/23 07:29:41;;;;;;;2.53;1.73;;;15.60;99.90;;;;;;4924290;29;20402;-85
2021/09/23 07:32:09;;;;;;;5.65;1.33;;;15.60;99.90;;;;;;4941478;29;20026;-86
2021/09/23 07:34:36;;;;;;;4.10;1.67;;;15.60;99.90;;;;;;4925936;29;20028;-85
2021/09/23 07:37:02;;;;;;;3.17;1.40;;;15.60;99.90;;;;;;4929398;29;20030;-86
2021/09/23 07:39:27;;;;;;;3.38;1.15;;;15.70;99.90;;;;;;4951841;29;20110;-85
2021/09/23 07:41:53;;;;;;;3.80;1.20;;;15.70;99.90;;;;;;4930776;29;20020;-85
2021/09/23 07:44:22;;;;;;;4.68;1.15;;;15.70;99.90;;;;;;4930955;29;20493;-85
2021/09/23 07:46:47;;;;;;;2.85;1.25;;;15.70;99.90;;;;;;4958172;29;20469;-84
2021/09/23 07:49:13;;;;;;;5.15;1.80;;;15.80;99.90;;;;;;4924440;29;20031;-84
2021/09/23 07:51:39;;;;;;;6.93;1.42;;;15.80;99.90;;;;;;4956287;29;20019;-86
2021/09/23 07:54:05;;;;;;;2.25;1.00;;;15.80;99.90;;;;;;4939094;29;20038;-83
2021/09/23 07:56:31;;;;;;;4.45;1.23;;;15.90;99.90;;;;;;4937947;29;20057;-84
2021/09/23 07:58:56;;;;;;;2.78;1.25;;;15.90;99.90;;;;;;4931326;29;20024;-85
2021/09/23 08:01:22;;;;;;;6.50;1.50;;;15.90;99.90;;;;;;4933545;29;20489;-86
2021/09/23 08:03:48;;;;;;;4.00;1.10;;;15.90;99.90;;;;;;4937795;28;20047;-86
2021/09/23 08:06:14;;;;;;;9.95;1.75;;;16.00;99.90;;;;;;4937633;29;20054;-85
2021/09/23 08:08:40;;;;;;;2.90;0.82;;;16.00;99.90;;;;;;4935005;29;20067;-85
2021/09/23 08:11:05;;;;;;;7.10;1.20;;;16.10;99.90;;;;;;4952048;29;20057;-86
2021/09/23 08:13:31;;;;;;;5.35;1.10;;;16.10;99.90;;;;;;4930226;29;20023;-87
2021/09/23 08:15:56;;;;;;;6.43;1.23;;;16.20;99.90;;;;;;4921981;29;20039;-86
2021/09/23 08:18:22;;;;;;;4.50;0.90;;;16.30;99.90;;;;;;4919304;29;20028;-87
2021/09/23 08:20:49;;;;;;;5.30;1.08;;;16.30;99.90;;;;;;4919688;29;20585;-87
2021/09/23 08:23:15;;;;;;;2.08;1.00;;;16.40;99.90;;;;;;4918825;29;20035;-87
2021/09/23 08:25:40;;;;;;;5.40;0.75;;;16.40;99.90;;;;;;4919343;29;20039;-87
2021/09/23 08:28:07;;;;;;;2.97;1.85;;;16.40;99.90;;;;;;4926365;29;20032;-87
2021/09/23 08:30:34;;;;;;;3.83;1.00;;;16.50;99.90;;;;;;4943653;29;20023;-87
2021/09/23 08:33:00;;;;;;;4.47;1.08;;;16.60;99.90;;;;;;4941837;29;20035;-87
2021/09/23 08:35:25;;;;;;;4.28;0.98;;;16.70;99.90;;;;;;4925158;29;20020;-86
2021/09/23 08:37:51;;;;;;;1.35;0.90;;;16.80;99.90;;;;;;4940106;29;20099;-86
2021/09/23 08:40:17;;;;;;;3.78;0.88;;;16.80;99.90;;;;;;4943359;29;20020;-87
2021/09/23 08:42:46;;;;;;;3.40;0.90;;;17.00;99.90;;;;;;4941981;29;20067;-87
2021/09/23 08:45:15;;;;;;;3.38;1.20;;;17.00;99.90;;;;;;4941763;29;20409;-87
2021/09/23 08:47:42;;;;;;;3.78;1.20;;;17.00;99.90;;;;;;4943585;29;20335;-86
2021/09/23 08:50:11;;;;;;;4.47;0.95;;;17.10;99.90;;;;;;4926728;29;20486;-86
2021/09/23 08:52:37;;;;;;;9.43;1.42;;;17.20;99.90;;;;;;4926506;29;20624;-86
2021/09/23 08:55:03;;;;;;;2.97;0.95;;;17.20;99.90;;;;;;4928710;29;20043;-86
2021/09/23 08:57:30;;;;;;;4.13;1.10;;;17.30;99.90;;;;;;4927587;29;20028;-86
2021/09/23 08:59:56;;;;;;;2.80;1.15;;;17.30;99.90;;;;;;4924079;29;20051;-86
2021/09/23 09:02:24;;;;;;;3.58;0.80;;;17.30;99.90;;;;;;4942440;29;20039;-86
2021/09/23 09:04:55;;;;;;;5.97;1.75;;;17.40;99.90;;;;;;4924143;29;20028;-85
2021/09/23 09:07:31;;;;;;;;;;;17.40;99.90;;;;;;4923121;29;20059;-86
2021/09/23 09:10:09;;;;;;;9.27;1.20;;;17.40;99.90;;;;;;4935497;29;19921;-87
2021/09/23 09:12:36;;;;;;;4.00;1.10;;;17.40;99.90;;;;;;4916697;29;20032;-87
2021/09/23 09:15:02;;;;;;;4.32;1.30;;;17.40;99.90;;;;;;4916611;29;20039;-87
2021/09/23 09:17:35;;;;;;;4.97;1.20;;;17.40;99.90;;;;;;4916295;29;20019;-85
2021/09/23 09:20:03;;;;;;;11.00;1.92;;;17.40;99.90;;;;;;4916307;29;20085;-87
2021/09/23 09:22:31;;;;;;;3.08;0.90;;;17.50;99.90;;;;;;4916105;29;20039;-86
2021/09/23 09:25:12;;;;;;;7.13;1.02;;;17.50;99.90;;;;;;4932779;29;20027;-86
2021/09/23 09:27:43;;;;;;;3.53;0.98;;;17.40;99.90;;;;;;4933505;29;20403;-86
2021/09/23 09:30:14;;;;;;;2.45;0.70;;;17.30;99.90;;;;;;4917434;29;20478;-86
2021/09/23 09:32:46;;;;;;;6.25;1.33;;;17.30;99.90;;;;;;4934057;29;20031;-88
2021/09/23 09:35:15;;;;;;;6.53;1.20;;;17.20;99.90;;;;;;4933949;29;20502;-86
2021/09/23 09:37:44;;;;;;;5.13;1.02;;;17.20;99.90;;;;;;4933244;29;20028;-87
2021/09/23 09:40:12;;;;;;;9.10;1.30;;;17.20;99.90;;;;;;4916979;29;20550;-87
2021/09/23 09:42:43;;;;;;;5.78;1.15;;;17.20;99.90;;;;;;4916121;29;20046;-87
2021/09/23 09:45:15;;;;;;;4.07;1.23;;;17.20;99.90;;;;;;4930119;29;21370;-87
2021/09/23 09:47:42;;;;;;;7.47;1.63;;;17.30;99.90;;;;;;4929016;29;20024;-87
2021/09/23 09:50:12;;;;;;;7.32;1.00;;;17.30;99.90;;;;;;4933885;29;20032;-86
2021/09/23 09:52:39;;;;;;;5.68;0.93;;;17.30;99.90;;;;;;4934274;29;20043;-87
2021/09/23 09:55:08;;;;;;;5.38;1.25;;;17.30;99.90;;;;;;4916818;29;20548;-87
2021/09/23 09:57:42;;;;;;;5.25;0.85;;;17.30;99.90;;;;;;4916588;29;20130;-87
2021/09/23 10:00:08;;;;;;;7.63;1.20;;;17.30;99.90;;;;;;4932741;29;20048;-85
2021/09/23 10:02:35;;;;;;;5.63;1.08;;;17.40;99.90;;;;;;4921507;29;20036;-86
2021/09/23 10:05:01;;;;;;;10.57;1.50;;;17.40;99.30;;;;;;4928336;29;20020;-87
2021/09/23 10:07:27;;;;;;;5.45;1.20;;;17.40;99.00;;;;;;4929805;29;20031;-86
2021/09/23 10:09:55;;;;;;;6.45;1.42;;;17.60;98.40;;;;;;4930024;29;20040;-87
2021/09/23 10:12:23;;;;;;;4.68;0.90;;;17.50;97.70;;;;;;4930915;29;20020;-85
2021/09/23 10:14:50;;;;;;;2.97;1.00;;;17.70;97.50;;;;;;4946259;29;20059;-87
2021/09/23 10:17:16;;;;;;;5.15;1.42;;;17.80;97.00;;;;;;4946257;29;20023;-87
2021/09/23 10:19:43;;;;;;;5.70;1.38;;;17.80;96.70;;;;;;4946109;29;20023;-87
2021/09/23 10:22:12;;;;;;;8.05;1.35;;;17.90;96.60;;;;;;4930428;29;20043;-87
2021/09/23 10:24:41;;;;;;;5.40;1.17;;;18.00;96.20;;;;;;4927686;29;20110;-86
2021/09/23 10:27:58;;;;;;;7.63;1.17;;;18.00;95.80;;;;;;4929674;29;20023;-86
2021/09/23 10:29:55;;;;;;;8.68;1.40;;;18.10;95.20;;;;;;4934559;29;20036;-85
2021/09/23 10:32:21;;;;;;;6.47;1.23;;;18.10;95.30;;;;;;4919785;29;20082;-85
2021/09/23 10:34:50;;;;;;;9.18;1.20;;;18.10;95.10;;;;;;4936120;29;20038;-86
2021/09/23 10:37:17;;;;;;;5.60;1.15;;;18.20;95.20;;;;;;4936473;29;20031;-86
2021/09/23 10:39:43;;;;;;;9.05;1.50;;;18.30;94.80;;;;;;4937501;29;20044;-85
2021/09/23 10:42:11;;;;;;;13.57;1.83;;;18.30;94.10;;;;;;4920922;29;20032;-86
2021/09/23 10:44:40;;;;;;;10.02;2.28;;;18.40;93.80;;;;;;4936705;29;20564;-85
2021/09/23 10:47:07;;;;;;;6.07;1.45;;;18.40;93.50;;;;;;4937538;29;20020;-86
2021/09/23 10:49:34;;;;;;;8.55;1.30;;;18.50;93.60;;;;;;4938768;29;20015;-87
2021/09/23 10:52:01;;;;;;;7.22;1.17;;;18.60;93.60;;;;;;4927427;29;20020;-86
2021/09/23 10:54:28;;;;;;;6.28;1.70;;;18.80;93.30;;;;;;4928962;29;20035;-86
2021/09/23 10:56:54;;;;;;;3.97;1.05;;;18.70;92.60;;;;;;4944941;29;20024;-84
2021/09/23 10:59:21;;;;;;;8.48;1.15;;;18.60;92.00;;;;;;4944481;29;20055;-85
2021/09/23 11:01:48;;;;;;;7.80;1.40;;;18.40;91.50;;;;;;4926153;29;20019;-86
2021/09/23 11:04:14;;;;;;;5.57;1.30;;;18.20;91.50;;;;;;4936473;29;20032;-86
2021/09/23 11:06:41;;;;;;;4.95;1.10;;;17.90;91.60;;;;;;4917688;29;20031;-86
2021/09/23 11:09:24;;;;;;;6.95;1.48;;;17.80;92.30;;;;;;4916525;29;20502;-85
2021/09/23 11:11:59;;;;;;;4.32;1.83;;;17.70;92.40;;;;;;4934767;29;20032;-85
2021/09/23 11:14:27;;;;;;;9.95;1.70;;;17.50;92.70;;;;;;4933237;29;20023;-85
2021/09/23 11:16:54;;;;;;;5.10;1.33;;;17.40;93.10;;;;;;4933058;29;20031;-85
2021/09/23 11:19:22;;;;;;;9.55;1.40;;;17.40;93.30;;;;;;4933917;29;20024;-85
2021/09/23 11:21:53;;;;;;;4.85;1.52;;;17.30;93.60;;;;;;4935209;29;20067;-88
2021/09/23 11:24:22;;;;;;;5.57;1.40;;;17.30;93.50;;;;;;4903108;29;20142;-90
2021/09/23 11:26:48;;;;;;;5.80;1.30;;;17.10;93.80;;;;;;4922102;29;20031;-89
2021/09/23 11:29:14;;;;;;;6.35;1.58;;;17.00;94.30;;;;;;4926694;29;20047;-90
2021/09/23 11:31:50;;;;;;;6.35;1.48;;;17.10;94.70;;;;;;4931112;29;20361;-90
2021/09/23 11:34:39;;;;;;;10.02;1.85;;;17.20;95.00;;;;;;4931018;29;20051;-90
2021/09/23 11:37:06;;;;;;;7.22;1.98;;;17.30;95.30;;;;;;4930365;29;20019;-89
2021/09/23 11:39:33;;;;;;;7.72;1.45;;;17.40;95.20;;;;;;4922980;29;20044;-89
2021/09/23 11:42:10;;;;;;;8.82;1.50;;;17.70;94.80;;;;;;4935501;29;20110;-90
2021/09/23 11:44:36;;;;;;;7.53;1.10;;;18.00;94.30;;;;;;4931075;29;20040;-90
2021/09/23 11:47:02;;;;;;;5.55;1.45;;;18.30;92.80;;;;;;4936696;29;20110;-89
2021/09/23 11:49:28;;;;;;;7.53;1.17;;;18.40;92.40;;;;;;4935564;29;20110;-90
2021/09/23 11:51:56;;;;;;;6.80;1.38;;;18.40;92.10;;;;;;4931103;29;20016;-91
2021/09/23 11:54:23;;;;;;;5.47;1.00;;;18.40;92.40;;;;;;4921935;29;20028;-90
2021/09/23 11:56:48;;;;;;;9.52;1.55;;;18.40;92.40;;;;;;4921146;29;20034;-91
2021/09/23 11:59:25;;;;;;;6.78;1.20;;;18.30;92.40;;;;;;4920944;29;20547;-90
2021/09/23 12:02:01;;;;;;;8.88;1.80;;;18.20;92.50;;;;;;4925319;29;20059;-90
2021/09/23 12:04:27;;;;;;;6.05;1.33;;;18.10;92.60;;;;;;4927212;29;20058;-90
2021/09/23 12:07:04;;;;;;;7.18;1.40;;;18.00;92.90;;;;;;4927706;29;20023;-88
2021/09/23 12:09:30;;;;;;;6.30;1.80;;;18.10;93.20;;;;;;4929579;29;20146;-88
2021/09/23 12:11:56;;;;;;;10.45;1.50;;;18.20;93.20;;;;;;4944195;29;20406;-89
2021/09/23 12:14:21;;;;;;;7.18;1.63;;;18.30;93.00;;;;;;4929209;29;20055;-89
2021/09/23 12:16:49;;;;;;;13.30;1.63;;;18.30;92.90;;;;;;4928395;29;20028;-89
2021/09/23 12:19:17;;;;;;;9.70;1.70;;;18.40;93.00;;;;;;4947000;29;20023;-90
2021/09/23 12:21:51;;;;;;;9.02;1.90;;;18.40;93.00;;;;;;4925986;29;20541;-90
2021/09/23 12:24:17;;;;;;;7.78;1.83;;;18.40;93.10;;;;;;4930038;29;20031;-89
2021/09/23 12:26:44;;;;;;;11.55;1.70;;;18.40;92.90;;;;;;4930779;29;20027;-90
2021/09/23 12:29:24;;;;;;;12.85;1.77;;;18.20;93.00;;;;;;4928785;29;20155;-88
2021/09/23 12:32:06;;;;;;;13.65;2.03;;;18.10;93.40;;;;;;4944839;29;20131;-88
2021/09/23 12:34:42;;;;;;;8.25;2.22;;;17.90;93.70;;;;;;4932870;29;20039;-90
2021/09/23 12:37:08;;;;;;;9.48;1.70;;;17.80;94.00;;;;;;4936069;29;20031;-88
2021/09/23 12:39:44;;;;;;;9.52;2.05;;;17.70;94.30;;;;;;4952866;29;20028;-89
2021/09/23 12:42:11;;;;;;;17.73;3.05;;;17.70;94.70;;;;;;4948255;29;20128;-89
2021/09/23 12:44:40;;;;;;;9.48;1.70;;;17.70;94.80;;;;;;4947888;29;20050;-87
2021/09/23 12:47:10;;;;;;;12.80;2.05;;;17.50;95.00;;;;;;4923362;29;20409;-88